sensor_id;sensor_type;location;lat;lon;timestamp;pressure;altitude;pressure_sealevel;temperature;humidity
23589;BME280;11972;48.078;11.876;2023-02-28T00:00:31;95805.94;;;-4.69;100.00
23589;BME280;11972;48.078;11.876;2023-02-28T00:04:32;95800.97;;;-4.72;100.00
23589;BME280;11972;48.078;11.876;2023-02-28T00:08:32;95796.31;;;-4.66;100.00
23589;BME280;11972;48.078;11.876;2023-02-28T00:12:34;95803.06;;;-4.63;100.00
23589;BME280;11972;48.078;11.876;2023-02-28T00:16:34;95798.00;;;-4.65;100.00
23589;BME280;11972;48.078;11.876;2023-02-28T00:20:35;95799.31;;;-4.58;100.00
23589;BME280;11972;48.078;11.876;2023-02-28T00:24:35;95801.16;;;-4.60;100.00
23589;BME280;11972;48.078;11.876;2023-02-28T00:28:35;95800.47;;;-4.63;100.00
23589;BME280;11972;48.078;11.876;2023-02-28T00:32:36;95787.28;;;-4.73;100.00
23589;BME280;11972;48.078;11.876;2023-02-28T00:36:36;95794.81;;;-4.70;100.00
23589;BME280;11972;48.078;11.876;2023-02-28T00:40:36;95787.28;;;-4.73;100.00
23589;BME280;11972;48.078;11.876;2023-02-28T00:44:37;95791.09;;;-4.64;100.00
23589;BME280;11972;48.078;11.876;2023-02-28T00:48:37;95788.00;;;-4.55;100.00
23589;BME280;11972;48.078;11.876;2023-02-28T00:52:37;95788.06;;;-4.57;100.00
23589;BME280;11972;48.078;11.876;2023-02-28T00:56:38;95782.53;;;-4.65;100.00
23589;BME280;11972;48.078;11.876;2023-02-28T01:00:38;95791.66;;;-4.59;100.00
23589;BME280;11972;48.078;11.876;2023-02-28T01:04:38;95788.50;;;-4.64;100.00
23589;BME280;11972;48.078;11.876;2023-02-28T01:08:39;95781.94;;;-4.70;100.00
23589;BME280;11972;48.078;11.876;2023-02-28T01:12:39;95780.00;;;-4.66;100.00
23589;BME280;11972;48.078;11.876;2023-02-28T01:16:39;95771.03;;;-4.75;100.00
23589;BME280;11972;48.078;11.876;2023-02-28T01:20:40;95771.53;;;-4.84;100.00
23589;BME280;11972;48.078;11.876;2023-02-28T01:24:40;95772.28;;;-4.82;100.00
23589;BME280;11972;48.078;11.876;2023-02-28T01:28:41;95774.69;;;-4.79;100.00
23589;BME280;11972;48.078;11.876;2023-02-28T01:32:41;95775.03;;;-4.85;100.00
23589;BME280;11972;48.078;11.876;2023-02-28T01:36:41;95767.78;;;-4.94;100.00
23589;BME280;11972;48.078;11.876;2023-02-28T01:40:42;95766.38;;;-5.00;100.00
23589;BME280;11972;48.078;11.876;2023-02-28T01:45:06;95752.56;;;-4.99;100.00
23589;BME280;11972;48.078;11.876;2023-02-28T01:49:16;95749.94;;;-4.97;100.00
23589;BME280;11972;48.078;11.876;2023-02-28T01:53:22;95749.94;;;-4.97;100.00
23589;BME280;11972;48.078;11.876;2023-02-28T01:57:28;95749.31;;;-5.03;100.00
23589;BME280;11972;48.078;11.876;2023-02-28T02:01:30;95748.44;;;-5.02;100.00
23589;BME280;11972;48.078;11.876;2023-02-28T02:05:31;95737.28;;;-5.02;100.00
23589;BME280;11972;48.078;11.876;2023-02-28T02:09:31;95737.94;;;-4.99;100.00
23589;BME280;11972;48.078;11.876;2023-02-28T02:14:03;95748.34;;;-5.00;100.00
23589;BME280;11972;48.078;11.876;2023-02-28T02:23:01;95740.44;;;-5.13;100.00
23589;BME280;11972;48.078;11.876;2023-02-28T02:27:19;95743.09;;;-5.14;100.00
23589;BME280;11972;48.078;11.876;2023-02-28T02:36:24;95753.88;;;-5.24;100.00
23589;BME280;11972;48.078;11.876;2023-02-28T02:40:30;95741.81;;;-5.23;100.00
23589;BME280;11972;48.078;11.876;2023-02-28T02:45:11;95747.41;;;-5.15;100.00
23589;BME280;11972;48.078;11.876;2023-02-28T02:49:16;95736.78;;;-5.09;100.00
23589;BME280;11972;48.078;11.876;2023-02-28T02:53:25;95741.44;;;-5.15;100.00
23589;BME280;11972;48.078;11.876;2023-02-28T02:57:35;95735.03;;;-5.24;100.00
23589;BME280;11972;48.078;11.876;2023-02-28T03:01:39;95730.38;;;-5.33;100.00
23589;BME280;11972;48.078;11.876;2023-02-28T03:05:50;95743.72;;;-5.42;100.00
23589;BME280;11972;48.078;11.876;2023-02-28T03:09:55;95730.56;;;-5.54;100.00
23589;BME280;11972;48.078;11.876;2023-02-28T03:22:46;95734.56;;;-5.48;100.00
23589;BME280;11972;48.078;11.876;2023-02-28T03:26:55;95733.59;;;-5.45;100.00
23589;BME280;11972;48.078;11.876;2023-02-28T03:31:16;95731.69;;;-5.42;100.00
23589;BME280;11972;48.078;11.876;2023-02-28T03:35:21;95735.81;;;-5.39;100.00
23589;BME280;11972;48.078;11.876;2023-02-28T03:39:27;95733.09;;;-5.36;100.00
23589;BME280;11972;48.078;11.876;2023-02-28T03:43:31;95735.94;;;-5.25;100.00
23589;BME280;11972;48.078;11.876;2023-02-28T03:48:20;95734.88;;;-5.21;100.00
23589;BME280;11972;48.078;11.876;2023-02-28T03:52:02;95730.44;;;-5.19;100.00
23589;BME280;11972;48.078;11.876;2023-02-28T03:56:40;95744.25;;;-5.20;100.00
23589;BME280;11972;48.078;11.876;2023-02-28T04:00:47;95746.91;;;-5.21;100.00
23589;BME280;11972;48.078;11.876;2023-02-28T04:04:49;95749.56;;;-5.23;100.00
23589;BME280;11972;48.078;11.876;2023-02-28T04:08:51;95758.19;;;-5.24;100.00
23589;BME280;11972;48.078;11.876;2023-02-28T04:12:51;95762.88;;;-5.31;100.00
23589;BME280;11972;48.078;11.876;2023-02-28T04:16:52;95774.00;;;-5.30;100.00
23589;BME280;11972;48.078;11.876;2023-02-28T04:20:52;95772.31;;;-5.31;100.00
23589;BME280;11972;48.078;11.876;2023-02-28T04:24:53;95780.13;;;-5.33;100.00
23589;BME280;11972;48.078;11.876;2023-02-28T04:28:54;95779.44;;;-5.36;100.00
23589;BME280;11972;48.078;11.876;2023-02-28T04:32:54;95767.78;;;-5.43;100.00
23589;BME280;11972;48.078;11.876;2023-02-28T04:36:55;95770.00;;;-5.53;100.00
23589;BME280;11972;48.078;11.876;2023-02-28T04:41:00;95771.75;;;-5.54;100.00
23589;BME280;11972;48.078;11.876;2023-02-28T04:45:02;95765.69;;;-5.53;100.00
23589;BME280;11972;48.078;11.876;2023-02-28T04:49:02;95769.28;;;-5.55;100.00
23589;BME280;11972;48.078;11.876;2023-02-28T04:53:03;95775.06;;;-5.52;100.00
23589;BME280;11972;48.078;11.876;2023-02-28T04:57:03;95774.72;;;-5.61;100.00
23589;BME280;11972;48.078;11.876;2023-02-28T05:01:07;95781.63;;;-5.62;100.00
23589;BME280;11972;48.078;11.876;2023-02-28T05:05:12;95784.34;;;-5.65;100.00
23589;BME280;11972;48.078;11.876;2023-02-28T05:09:18;95788.41;;;-5.61;100.00
23589;BME280;11972;48.078;11.876;2023-02-28T05:13:18;95788.91;;;-5.37;100.00
23589;BME280;11972;48.078;11.876;2023-02-28T05:17:18;95796.97;;;-5.10;100.00
23589;BME280;11972;48.078;11.876;2023-02-28T05:21:31;95795.28;;;-4.95;100.00
23589;BME280;11972;48.078;11.876;2023-02-28T05:25:31;95796.06;;;-4.77;100.00
23589;BME280;11972;48.078;11.876;2023-02-28T05:29:32;95798.72;;;-4.63;100.00
23589;BME280;11972;48.078;11.876;2023-02-28T05:33:32;95798.22;;;-4.54;100.00
23589;BME280;11972;48.078;11.876;2023-02-28T05:37:32;95805.63;;;-4.47;100.00
23589;BME280;11972;48.078;11.876;2023-02-28T05:41:33;95800.88;;;-4.39;100.00
23589;BME280;11972;48.078;11.876;2023-02-28T05:45:33;95794.69;;;-4.21;100.00
23589;BME280;11972;48.078;11.876;2023-02-28T05:49:33;95794.75;;;-4.07;100.00
23589;BME280;11972;48.078;11.876;2023-02-28T05:53:34;95795.72;;;-3.93;100.00
23589;BME280;11972;48.078;11.876;2023-02-28T05:57:35;95804.53;;;-3.82;100.00
23589;BME280;11972;48.078;11.876;2023-02-28T06:01:39;95812.16;;;-3.80;100.00
23589;BME280;11972;48.078;11.876;2023-02-28T06:05:40;95809.16;;;-3.58;100.00
23589;BME280;11972;48.078;11.876;2023-02-28T06:09:40;95812.41;;;-3.55;100.00
23589;BME280;11972;48.078;11.876;2023-02-28T06:13:41;95820.38;;;-3.43;100.00
23589;BME280;11972;48.078;11.876;2023-02-28T06:17:42;95823.97;;;-3.32;100.00
23589;BME280;11972;48.078;11.876;2023-02-28T06:21:43;95818.44;;;-3.26;100.00
23589;BME280;11972;48.078;11.876;2023-02-28T06:25:46;95816.16;;;-3.02;100.00
23589;BME280;11972;48.078;11.876;2023-02-28T06:29:47;95826.97;;;-2.95;100.00
23589;BME280;11972;48.078;11.876;2023-02-28T06:33:47;95832.03;;;-2.79;100.00
23589;BME280;11972;48.078;11.876;2023-02-28T06:37:48;95839.94;;;-2.68;100.00
23589;BME280;11972;48.078;11.876;2023-02-28T06:41:48;95832.94;;;-2.66;100.00
23589;BME280;11972;48.078;11.876;2023-02-28T06:45:49;95842.34;;;-2.51;100.00
23589;BME280;11972;48.078;11.876;2023-02-28T06:49:49;95846.94;;;-2.41;100.00
23589;BME280;11972;48.078;11.876;2023-02-28T06:53:50;95848.59;;;-2.26;100.00
23589;BME280;11972;48.078;11.876;2023-02-28T06:57:51;95849.63;;;-2.02;100.00
23589;BME280;11972;48.078;11.876;2023-02-28T07:01:51;95850.47;;;-2.01;100.00
23589;BME280;11972;48.078;11.876;2023-02-28T07:05:52;95851.50;;;-1.91;100.00
23589;BME280;11972;48.078;11.876;2023-02-28T07:09:52;95850.50;;;-1.88;100.00
23589;BME280;11972;48.078;11.876;2023-02-28T07:13:53;95855.09;;;-1.79;100.00
23589;BME280;11972;48.078;11.876;2023-02-28T07:17:54;95866.72;;;-1.72;100.00
23589;BME280;11972;48.078;11.876;2023-02-28T07:21:54;95857.91;;;-1.69;100.00
23589;BME280;11972;48.078;11.876;2023-02-28T07:25:55;95851.63;;;-1.53;100.00
23589;BME280;11972;48.078;11.876;2023-02-28T07:29:55;95853.63;;;-1.43;100.00
23589;BME280;11972;48.078;11.876;2023-02-28T07:33:55;95866.03;;;-1.88;100.00
23589;BME280;11972;48.078;11.876;2023-02-28T07:37:59;95861.50;;;-1.85;100.00
23589;BME280;11972;48.078;11.876;2023-02-28T07:42:00;95867.84;;;-1.76;100.00
23589;BME280;11972;48.078;11.876;2023-02-28T07:46:05;95861.78;;;-1.50;100.00
23589;BME280;11972;48.078;11.876;2023-02-28T07:50:07;95863.91;;;-1.29;100.00
23589;BME280;11972;48.078;11.876;2023-02-28T07:54:08;95862.47;;;-1.20;100.00
23589;BME280;11972;48.078;11.876;2023-02-28T07:58:08;95860.16;;;-1.38;100.00
23589;BME280;11972;48.078;11.876;2023-02-28T08:02:13;95866.41;;;-1.15;100.00
23589;BME280;11972;48.078;11.876;2023-02-28T08:06:19;95874.59;;;-1.08;100.00
23589;BME280;11972;48.078;11.876;2023-02-28T08:10:20;95867.69;;;-0.82;100.00
23589;BME280;11972;48.078;11.876;2023-02-28T08:14:21;95862.66;;;-0.60;100.00
23589;BME280;11972;48.078;11.876;2023-02-28T08:18:22;95871.41;;;-0.61;100.00
23589;BME280;11972;48.078;11.876;2023-02-28T08:22:23;95875.31;;;-0.55;100.00
23589;BME280;11972;48.078;11.876;2023-02-28T08:26:23;95875.47;;;-0.82;100.00
23589;BME280;11972;48.078;11.876;2023-02-28T08:30:23;95874.53;;;-1.07;100.00
23589;BME280;11972;48.078;11.876;2023-02-28T08:34:24;95879.59;;;-0.92;100.00
23589;BME280;11972;48.078;11.876;2023-02-28T08:38:24;95881.34;;;-0.80;100.00
23589;BME280;11972;48.078;11.876;2023-02-28T08:42:24;95892.03;;;-0.59;100.00
23589;BME280;11972;48.078;11.876;2023-02-28T08:46:25;95891.50;;;-0.52;100.00
23589;BME280;11972;48.078;11.876;2023-02-28T08:50:25;95900.31;;;-0.41;100.00
23589;BME280;11972;48.078;11.876;2023-02-28T08:54:26;95896.97;;;-0.18;100.00
23589;BME280;11972;48.078;11.876;2023-02-28T08:58:26;95895.31;;;0.18;100.00
23589;BME280;11972;48.078;11.876;2023-02-28T09:02:27;95897.31;;;-0.35;100.00
23589;BME280;11972;48.078;11.876;2023-02-28T09:06:27;95892.06;;;-0.10;100.00
23589;BME280;11972;48.078;11.876;2023-02-28T09:10:28;95902.22;;;-0.07;100.00
23589;BME280;11972;48.078;11.876;2023-02-28T09:14:28;95912.28;;;-0.77;100.00
23589;BME280;11972;48.078;11.876;2023-02-28T09:18:29;95916.66;;;-0.90;100.00
23589;BME280;11972;48.078;11.876;2023-02-28T09:22:29;95917.34;;;-0.50;100.00
23589;BME280;11972;48.078;11.876;2023-02-28T09:26:29;95922.41;;;-0.23;100.00
23589;BME280;11972;48.078;11.876;2023-02-28T09:30:30;95922.53;;;0.12;100.00
23589;BME280;11972;48.078;11.876;2023-02-28T09:34:31;95926.38;;;0.43;100.00
23589;BME280;11972;48.078;11.876;2023-02-28T09:38:32;95928.75;;;0.70;100.00
23589;BME280;11972;48.078;11.876;2023-02-28T09:42:33;95943.47;;;0.83;100.00
23589;BME280;11972;48.078;11.876;2023-02-28T09:46:43;95941.41;;;1.10;100.00
23589;BME280;11972;48.078;11.876;2023-02-28T09:50:50;95944.66;;;1.25;100.00
23589;BME280;11972;48.078;11.876;2023-02-28T09:54:51;95935.34;;;1.45;100.00
23589;BME280;11972;48.078;11.876;2023-02-28T09:59:00;95950.41;;;1.64;100.00
23589;BME280;11972;48.078;11.876;2023-02-28T10:03:18;95953.69;;;1.55;100.00
23589;BME280;11972;48.078;11.876;2023-02-28T10:12:12;95947.81;;;1.75;100.00
23589;BME280;11972;48.078;11.876;2023-02-28T10:16:22;95948.03;;;1.72;100.00
23589;BME280;11972;48.078;11.876;2023-02-28T10:20:24;95959.28;;;1.61;100.00
23589;BME280;11972;48.078;11.876;2023-02-28T10:24:43;95952.06;;;1.65;100.00
23589;BME280;11972;48.078;11.876;2023-02-28T10:28:44;95958.00;;;1.78;100.00
23589;BME280;11972;48.078;11.876;2023-02-28T10:32:50;95955.34;;;1.44;100.00
23589;BME280;11972;48.078;11.876;2023-02-28T10:36:51;95954.34;;;1.23;100.00
23589;BME280;11972;48.078;11.876;2023-02-28T10:40:51;95952.81;;;1.20;100.00
23589;BME280;11972;48.078;11.876;2023-02-28T10:49:24;95964.94;;;1.09;100.00
23589;BME280;11972;48.078;11.876;2023-02-28T10:53:37;95966.53;;;1.22;100.00
23589;BME280;11972;48.078;11.876;2023-02-28T10:57:39;95972.91;;;1.18;100.00
23589;BME280;11972;48.078;11.876;2023-02-28T11:01:41;95978.09;;;0.83;100.00
23589;BME280;11972;48.078;11.876;2023-02-28T11:05:43;95975.38;;;0.85;100.00
23589;BME280;11972;48.078;11.876;2023-02-28T11:09:52;95980.97;;;1.15;100.00
23589;BME280;11972;48.078;11.876;2023-02-28T11:13:54;95979.28;;;1.14;100.00
23589;BME280;11972;48.078;11.876;2023-02-28T11:18:02;95968.22;;;1.23;100.00
23589;BME280;11972;48.078;11.876;2023-02-28T11:22:06;95971.19;;;1.41;100.00
23589;BME280;11972;48.078;11.876;2023-02-28T11:26:07;95967.06;;;1.50;100.00
23589;BME280;11972;48.078;11.876;2023-02-28T11:30:38;95967.81;;;1.17;100.00
23589;BME280;11972;48.078;11.876;2023-02-28T11:34:40;95972.84;;;0.96;100.00
23589;BME280;11972;48.078;11.876;2023-02-28T11:38:41;95962.41;;;1.20;100.00
23589;BME280;11972;48.078;11.876;2023-02-28T11:51:57;95949.09;;;1.92;100.00
23589;BME280;11972;48.078;11.876;2023-02-28T11:56:21;95937.13;;;2.01;100.00
23589;BME280;11972;48.078;11.876;2023-02-28T12:05:08;95935.94;;;2.16;100.00
23589;BME280;11972;48.078;11.876;2023-02-28T12:09:29;95930.97;;;2.13;100.00
23589;BME280;11972;48.078;11.876;2023-02-28T12:30:43;95932.50;;;2.27;100.00
23589;BME280;11972;48.078;11.876;2023-02-28T12:34:58;95932.69;;;2.46;100.00
23589;BME280;11972;48.078;11.876;2023-02-28T12:39:10;95922.38;;;2.56;100.00
23589;BME280;11972;48.078;11.876;2023-02-28T12:43:15;95905.69;;;2.47;100.00
23589;BME280;11972;48.078;11.876;2023-02-28T12:47:18;95909.34;;;2.44;100.00
23589;BME280;11972;48.078;11.876;2023-02-28T12:51:18;95912.16;;;2.53;100.00
23589;BME280;11972;48.078;11.876;2023-02-28T12:55:35;95903.41;;;2.42;100.00
23589;BME280;11972;48.078;11.876;2023-02-28T12:59:45;95906.78;;;2.22;100.00
23589;BME280;11972;48.078;11.876;2023-02-28T13:04:00;95906.78;;;2.22;100.00
23589;BME280;11972;48.078;11.876;2023-02-28T13:12:22;95908.75;;;2.84;100.00
23589;BME280;11972;48.078;11.876;2023-02-28T13:16:23;95913.47;;;3.11;100.00
23589;BME280;11972;48.078;11.876;2023-02-28T13:20:27;95907.66;;;3.29;100.00
23589;BME280;11972;48.078;11.876;2023-02-28T13:24:50;95914.09;;;3.24;100.00
23589;BME280;11972;48.078;11.876;2023-02-28T13:45:30;95900.75;;;3.18;100.00
23589;BME280;11972;48.078;11.876;2023-02-28T13:49:38;95905.53;;;3.13;100.00
23589;BME280;11972;48.078;11.876;2023-02-28T13:53:50;95908.66;;;3.37;100.00
23589;BME280;11972;48.078;11.876;2023-02-28T14:06:53;95894.59;;;3.80;100.00
23589;BME280;11972;48.078;11.876;2023-02-28T14:11:06;95897.91;;;3.82;100.00
23589;BME280;11972;48.078;11.876;2023-02-28T14:15:36;95901.47;;;3.81;100.00
23589;BME280;11972;48.078;11.876;2023-02-28T14:19:39;95900.63;;;3.71;100.00
23589;BME280;11972;48.078;11.876;2023-02-28T14:24:06;95894.50;;;3.61;100.00
23589;BME280;11972;48.078;11.876;2023-02-28T14:32:45;95892.78;;;3.71;100.00
23589;BME280;11972;48.078;11.876;2023-02-28T14:36:48;95894.25;;;3.64;100.00
23589;BME280;11972;48.078;11.876;2023-02-28T14:40:52;95897.72;;;3.43;100.00
23589;BME280;11972;48.078;11.876;2023-02-28T14:44:54;95892.25;;;3.46;100.00
23589;BME280;11972;48.078;11.876;2023-02-28T14:48:56;95890.72;;;3.44;100.00
23589;BME280;11972;48.078;11.876;2023-02-28T14:52:57;95894.97;;;3.45;100.00
23589;BME280;11972;48.078;11.876;2023-02-28T14:56:58;95898.34;;;3.57;100.00
23589;BME280;11972;48.078;11.876;2023-02-28T15:01:00;95889.22;;;3.72;100.00
23589;BME280;11972;48.078;11.876;2023-02-28T15:05:28;95894.03;;;3.77;100.00
23589;BME280;11972;48.078;11.876;2023-02-28T15:09:28;95888.56;;;3.80;100.00
23589;BME280;11972;48.078;11.876;2023-02-28T15:17:36;95887.03;;;3.46;100.00
23589;BME280;11972;48.078;11.876;2023-02-28T15:21:40;95883.66;;;3.35;100.00
23589;BME280;11972;48.078;11.876;2023-02-28T15:25:42;95889.97;;;3.32;100.00
23589;BME280;11972;48.078;11.876;2023-02-28T15:29:46;95894.81;;;3.16;100.00
23589;BME280;11972;48.078;11.876;2023-02-28T15:33:54;95902.97;;;3.02;100.00
23589;BME280;11972;48.078;11.876;2023-02-28T15:37:55;95902.56;;;2.85;100.00
23589;BME280;11972;48.078;11.876;2023-02-28T15:42:19;95904.97;;;2.77;100.00
23589;BME280;11972;48.078;11.876;2023-02-28T15:46:20;95906.66;;;2.67;100.00
23589;BME280;11972;48.078;11.876;2023-02-28T15:50:20;95908.22;;;2.58;100.00
23589;BME280;11972;48.078;11.876;2023-02-28T15:54:24;95903.91;;;2.47;100.00
23589;BME280;11972;48.078;11.876;2023-02-28T15:58:24;95901.56;;;2.33;100.00
23589;BME280;11972;48.078;11.876;2023-02-28T16:02:33;95896.72;;;2.17;100.00
23589;BME280;11972;48.078;11.876;2023-02-28T16:06:38;95903.63;;;2.07;100.00
23589;BME280;11972;48.078;11.876;2023-02-28T16:10:41;95901.97;;;1.95;100.00
23589;BME280;11972;48.078;11.876;2023-02-28T16:14:42;95909.19;;;1.80;100.00
23589;BME280;11972;48.078;11.876;2023-02-28T16:18:42;95906.84;;;1.66;100.00
23589;BME280;11972;48.078;11.876;2023-02-28T16:22:43;95911.34;;;1.53;100.00
23589;BME280;11972;48.078;11.876;2023-02-28T16:26:46;95916.28;;;1.33;100.00
23589;BME280;11972;48.078;11.876;2023-02-28T16:30:51;95917.44;;;1.18;100.00
23589;BME280;11972;48.078;11.876;2023-02-28T16:34:51;95914.56;;;1.10;100.00
23589;BME280;11972;48.078;11.876;2023-02-28T16:38:52;95914.78;;;0.95;100.00
23589;BME280;11972;48.078;11.876;2023-02-28T16:42:54;95927.47;;;0.76;100.00
23589;BME280;11972;48.078;11.876;2023-02-28T16:46:56;95933.91;;;0.59;100.00
23589;BME280;11972;48.078;11.876;2023-02-28T16:50:57;95935.53;;;0.36;100.00
23589;BME280;11972;48.078;11.876;2023-02-28T16:54:58;95934.16;;;0.19;100.00
23589;BME280;11972;48.078;11.876;2023-02-28T16:59:01;95934.41;;;0.04;100.00
23589;BME280;11972;48.078;11.876;2023-02-28T17:03:02;95934.53;;;-0.11;100.00
23589;BME280;11972;48.078;11.876;2023-02-28T17:07:02;95931.56;;;-0.30;100.00
23589;BME280;11972;48.078;11.876;2023-02-28T17:11:02;95939.25;;;-0.41;100.00
23589;BME280;11972;48.078;11.876;2023-02-28T17:15:03;95947.25;;;-0.44;100.00
23589;BME280;11972;48.078;11.876;2023-02-28T17:19:05;95944.44;;;-0.41;100.00
23589;BME280;11972;48.078;11.876;2023-02-28T17:23:06;95957.94;;;-0.36;100.00
23589;BME280;11972;48.078;11.876;2023-02-28T17:27:11;95962.91;;;-0.33;100.00
23589;BME280;11972;48.078;11.876;2023-02-28T17:31:12;95962.50;;;-0.27;100.00
23589;BME280;11972;48.078;11.876;2023-02-28T17:35:13;95973.09;;;-0.30;100.00
23589;BME280;11972;48.078;11.876;2023-02-28T17:39:14;95972.78;;;-0.26;100.00
23589;BME280;11972;48.078;11.876;2023-02-28T17:43:15;95977.44;;;-0.18;100.00
23589;BME280;11972;48.078;11.876;2023-02-28T17:47:15;95973.28;;;-0.08;100.00
23589;BME280;11972;48.078;11.876;2023-02-28T17:51:17;95982.84;;;0.05;100.00
23589;BME280;11972;48.078;11.876;2023-02-28T17:55:18;95968.25;;;0.15;100.00
23589;BME280;11972;48.078;11.876;2023-02-28T17:59:19;95973.25;;;0.18;100.00
23589;BME280;11972;48.078;11.876;2023-02-28T18:03:19;95973.75;;;0.23;100.00
23589;BME280;11972;48.078;11.876;2023-02-28T18:07:21;95976.97;;;0.27;100.00
23589;BME280;11972;48.078;11.876;2023-02-28T18:11:23;95973.03;;;0.21;100.00
23589;BME280;11972;48.078;11.876;2023-02-28T18:15:23;95969.50;;;0.22;100.00
23589;BME280;11972;48.078;11.876;2023-02-28T18:19:24;95977.16;;;0.23;100.00
23589;BME280;11972;48.078;11.876;2023-02-28T18:23:24;95975.91;;;0.29;100.00
23589;BME280;11972;48.078;11.876;2023-02-28T18:27:24;95979.06;;;0.21;100.00
23589;BME280;11972;48.078;11.876;2023-02-28T18:31:25;95971.44;;;0.31;100.00
23589;BME280;11972;48.078;11.876;2023-02-28T18:35:25;95976.72;;;0.42;100.00
23589;BME280;11972;48.078;11.876;2023-02-28T18:39:35;95976.75;;;0.78;100.00
23589;BME280;11972;48.078;11.876;2023-02-28T18:43:36;95983.66;;;0.79;100.00
23589;BME280;11972;48.078;11.876;2023-02-28T18:47:39;95976.88;;;0.76;100.00
23589;BME280;11972;48.078;11.876;2023-02-28T18:51:40;95978.53;;;0.77;100.00
23589;BME280;11972;48.078;11.876;2023-02-28T18:55:44;95973.25;;;0.79;100.00
23589;BME280;11972;48.078;11.876;2023-02-28T18:59:44;95972.06;;;0.83;100.00
23589;BME280;11972;48.078;11.876;2023-02-28T19:03:44;95969.47;;;0.83;100.00
23589;BME280;11972;48.078;11.876;2023-02-28T19:07:45;95966.16;;;0.81;100.00
23589;BME280;11972;48.078;11.876;2023-02-28T19:11:46;95971.13;;;0.84;100.00
23589;BME280;11972;48.078;11.876;2023-02-28T19:15:46;95969.13;;;0.87;100.00
23589;BME280;11972;48.078;11.876;2023-02-28T19:19:47;95977.16;;;0.84;100.00
23589;BME280;11972;48.078;11.876;2023-02-28T19:23:47;95966.97;;;0.81;100.00
23589;BME280;11972;48.078;11.876;2023-02-28T19:27:50;95965.03;;;0.72;100.00
23589;BME280;11972;48.078;11.876;2023-02-28T19:31:51;95972.06;;;0.59;100.00
23589;BME280;11972;48.078;11.876;2023-02-28T19:35:52;95970.41;;;0.58;100.00
23589;BME280;11972;48.078;11.876;2023-02-28T19:39:52;95964.75;;;0.64;100.00
23589;BME280;11972;48.078;11.876;2023-02-28T19:43:56;95967.75;;;0.70;100.00
23589;BME280;11972;48.078;11.876;2023-02-28T19:47:56;95970.53;;;0.80;100.00
23589;BME280;11972;48.078;11.876;2023-02-28T19:51:57;95971.56;;;0.78;100.00
23589;BME280;11972;48.078;11.876;2023-02-28T19:55:58;95963.22;;;0.85;100.00
23589;BME280;11972;48.078;11.876;2023-02-28T19:59:59;95966.28;;;0.90;100.00
23589;BME280;11972;48.078;11.876;2023-02-28T20:03:59;95957.09;;;0.97;100.00
23589;BME280;11972;48.078;11.876;2023-02-28T20:08:05;95953.56;;;0.98;100.00
23589;BME280;11972;48.078;11.876;2023-02-28T20:12:05;95950.25;;;0.96;100.00
23589;BME280;11972;48.078;11.876;2023-02-28T20:16:08;95951.81;;;1.10;100.00
23589;BME280;11972;48.078;11.876;2023-02-28T20:20:09;95943.44;;;1.18;100.00
23589;BME280;11972;48.078;11.876;2023-02-28T20:24:11;95942.41;;;1.20;100.00
23589;BME280;11972;48.078;11.876;2023-02-28T20:28:11;95951.47;;;1.15;100.00
23589;BME280;11972;48.078;11.876;2023-02-28T20:32:13;95947.47;;;1.22;100.00
23589;BME280;11972;48.078;11.876;2023-02-28T20:36:14;95939.31;;;1.15;100.00
23589;BME280;11972;48.078;11.876;2023-02-28T20:40:16;95936.47;;;1.18;100.00
23589;BME280;11972;48.078;11.876;2023-02-28T20:44:17;95943.00;;;1.24;100.00
23589;BME280;11972;48.078;11.876;2023-02-28T20:48:18;95943.09;;;1.11;100.00
23589;BME280;11972;48.078;11.876;2023-02-28T20:52:18;95942.03;;;1.14;100.00
23589;BME280;11972;48.078;11.876;2023-02-28T20:56:20;95936.38;;;1.20;100.00
23589;BME280;11972;48.078;11.876;2023-02-28T21:00:22;95943.63;;;1.28;100.00
23589;BME280;11972;48.078;11.876;2023-02-28T21:04:25;95942.91;;;1.37;100.00
23589;BME280;11972;48.078;11.876;2023-02-28T21:08:25;95943.72;;;1.26;100.00
23589;BME280;11972;48.078;11.876;2023-02-28T21:12:26;95936.97;;;1.23;100.00
23589;BME280;11972;48.078;11.876;2023-02-28T21:16:26;95945.88;;;1.32;100.00
23589;BME280;11972;48.078;11.876;2023-02-28T21:20:28;95941.97;;;1.38;100.00
23589;BME280;11972;48.078;11.876;2023-02-28T21:24:28;95940.78;;;1.42;100.00
23589;BME280;11972;48.078;11.876;2023-02-28T21:28:29;95941.03;;;1.50;100.00
23589;BME280;11972;48.078;11.876;2023-02-28T21:32:29;95939.00;;;1.42;100.00
23589;BME280;11972;48.078;11.876;2023-02-28T21:36:31;95929.78;;;1.38;100.00
23589;BME280;11972;48.078;11.876;2023-02-28T21:40:34;95929.31;;;1.33;100.00
23589;BME280;11972;48.078;11.876;2023-02-28T21:44:34;95923.97;;;1.23;100.00
23589;BME280;11972;48.078;11.876;2023-02-28T21:48:36;95912.72;;;1.34;100.00
23589;BME280;11972;48.078;11.876;2023-02-28T21:52:37;95916.53;;;1.41;100.00
23589;BME280;11972;48.078;11.876;2023-02-28T21:56:38;95922.91;;;1.37;100.00
23589;BME280;11972;48.078;11.876;2023-02-28T22:00:39;95913.72;;;1.44;100.00
23589;BME280;11972;48.078;11.876;2023-02-28T22:04:40;95922.22;;;1.46;100.00
23589;BME280;11972;48.078;11.876;2023-02-28T22:08:43;95927.78;;;1.42;100.00
23589;BME280;11972;48.078;11.876;2023-02-28T22:12:44;95922.44;;;1.43;100.00
23589;BME280;11972;48.078;11.876;2023-02-28T22:16:44;95922.66;;;1.29;100.00
23589;BME280;11972;48.078;11.876;2023-02-28T22:20:52;95917.72;;;1.37;100.00
23589;BME280;11972;48.078;11.876;2023-02-28T22:24:53;95920.41;;;1.36;100.00
23589;BME280;11972;48.078;11.876;2023-02-28T22:28:53;95918.03;;;1.21;100.00
23589;BME280;11972;48.078;11.876;2023-02-28T22:32:53;95919.44;;;1.14;100.00
23589;BME280;11972;48.078;11.876;2023-02-28T22:36:53;95917.81;;;1.24;100.00
23589;BME280;11972;48.078;11.876;2023-02-28T22:40:55;95926.44;;;1.25;100.00